sensor_id;sensor_type;location;lat;lon;timestamp;temperature;humidity
74384;DHT22;62824;52.994;-3.936;2023-04-15T00:02:23;5.70;98.90
74384;DHT22;62824;52.994;-3.936;2023-04-15T00:04:49;5.60;99.40
74384;DHT22;62824;52.994;-3.936;2023-04-15T00:07:15;5.50;99.20
74384;DHT22;62824;52.994;-3.936;2023-04-15T00:09:42;5.60;98.90
74384;DHT22;62824;52.994;-3.936;2023-04-15T00:12:10;5.60;98.40
74384;DHT22;62824;52.994;-3.936;2023-04-15T00:14:35;5.60;98.80
74384;DHT22;62824;52.994;-3.936;2023-04-15T00:17:02;5.50;99.90
74384;DHT22;62824;52.994;-3.936;2023-04-15T00:19:29;5.50;99.90
74384;DHT22;62824;52.994;-3.936;2023-04-15T00:21:55;5.40;99.90
74384;DHT22;62824;52.994;-3.936;2023-04-15T00:24:22;5.30;99.90
74384;DHT22;62824;52.994;-3.936;2023-04-15T00:26:48;5.30;99.90
74384;DHT22;62824;52.994;-3.936;2023-04-15T00:29:14;5.30;99.90
74384;DHT22;62824;52.994;-3.936;2023-04-15T00:31:40;5.30;99.90
74384;DHT22;62824;52.994;-3.936;2023-04-15T00:34:06;5.30;99.90
74384;DHT22;62824;52.994;-3.936;2023-04-15T00:36:32;5.50;99.90
74384;DHT22;62824;52.994;-3.936;2023-04-15T00:38:59;5.50;99.90
74384;DHT22;62824;52.994;-3.936;2023-04-15T00:41:25;5.40;99.90
74384;DHT22;62824;52.994;-3.936;2023-04-15T00:43:51;5.40;99.90
74384;DHT22;62824;52.994;-3.936;2023-04-15T00:46:17;5.40;99.90
74384;DHT22;62824;52.994;-3.936;2023-04-15T00:48:46;5.40;99.90
74384;DHT22;62824;52.994;-3.936;2023-04-15T00:51:12;5.30;99.90
74384;DHT22;62824;52.994;-3.936;2023-04-15T00:53:39;5.20;99.90
74384;DHT22;62824;52.994;-3.936;2023-04-15T00:56:05;5.20;99.90
74384;DHT22;62824;52.994;-3.936;2023-04-15T00:58:31;5.20;99.90
74384;DHT22;62824;52.994;-3.936;2023-04-15T01:00:57;5.10;99.90
74384;DHT22;62824;52.994;-3.936;2023-04-15T01:03:24;5.20;99.90
74384;DHT22;62824;52.994;-3.936;2023-04-15T01:05:50;5.20;99.90
74384;DHT22;62824;52.994;-3.936;2023-04-15T01:08:29;5.20;99.90
74384;DHT22;62824;52.994;-3.936;2023-04-15T01:11:00;5.30;99.90
74384;DHT22;62824;52.994;-3.936;2023-04-15T01:13:28;5.30;99.90
74384;DHT22;62824;52.994;-3.936;2023-04-15T01:15:55;5.30;99.90
74384;DHT22;62824;52.994;-3.936;2023-04-15T01:18:22;5.20;99.90
74384;DHT22;62824;52.994;-3.936;2023-04-15T01:20:48;5.20;99.90
74384;DHT22;62824;52.994;-3.936;2023-04-15T01:23:14;5.20;99.90
74384;DHT22;62824;52.994;-3.936;2023-04-15T01:25:42;5.20;99.90
74384;DHT22;62824;52.994;-3.936;2023-04-15T01:28:09;5.30;99.90
74384;DHT22;62824;52.994;-3.936;2023-04-15T01:30:35;5.30;99.90
74384;DHT22;62824;52.994;-3.936;2023-04-15T01:33:01;5.20;99.90
74384;DHT22;62824;52.994;-3.936;2023-04-15T01:35:27;5.20;99.90
74384;DHT22;62824;52.994;-3.936;2023-04-15T01:37:54;5.30;99.90
74384;DHT22;62824;52.994;-3.936;2023-04-15T01:40:23;5.20;99.90
74384;DHT22;62824;52.994;-3.936;2023-04-15T01:42:49;5.20;99.90
74384;DHT22;62824;52.994;-3.936;2023-04-15T01:45:15;5.20;99.90
74384;DHT22;62824;52.994;-3.936;2023-04-15T01:47:41;5.40;99.90
74384;DHT22;62824;52.994;-3.936;2023-04-15T01:50:08;5.50;99.90
74384;DHT22;62824;52.994;-3.936;2023-04-15T01:52:34;5.60;99.90
74384;DHT22;62824;52.994;-3.936;2023-04-15T01:54:59;5.70;99.90
74384;DHT22;62824;52.994;-3.936;2023-04-15T01:57:25;5.80;99.90
74384;DHT22;62824;52.994;-3.936;2023-04-15T01:59:51;5.70;99.90
74384;DHT22;62824;52.994;-3.936;2023-04-15T02:02:17;5.70;99.90
74384;DHT22;62824;52.994;-3.936;2023-04-15T02:04:42;5.70;99.90
74384;DHT22;62824;52.994;-3.936;2023-04-15T02:07:09;5.70;99.90
74384;DHT22;62824;52.994;-3.936;2023-04-15T02:09:34;5.80;99.90
74384;DHT22;62824;52.994;-3.936;2023-04-15T02:12:00;5.90;99.90
74384;DHT22;62824;52.994;-3.936;2023-04-15T02:14:26;5.90;99.90
74384;DHT22;62824;52.994;-3.936;2023-04-15T02:16:52;5.90;99.90
74384;DHT22;62824;52.994;-3.936;2023-04-15T02:19:17;5.90;99.90
74384;DHT22;62824;52.994;-3.936;2023-04-15T02:21:43;6.00;99.90
74384;DHT22;62824;52.994;-3.936;2023-04-15T02:24:09;6.00;99.90
74384;DHT22;62824;52.994;-3.936;2023-04-15T02:26:36;6.00;99.90
74384;DHT22;62824;52.994;-3.936;2023-04-15T02:29:03;6.00;99.90
74384;DHT22;62824;52.994;-3.936;2023-04-15T02:31:28;5.90;99.90
74384;DHT22;62824;52.994;-3.936;2023-04-15T02:33:54;5.90;99.90
74384;DHT22;62824;52.994;-3.936;2023-04-15T02:36:20;5.80;99.90
74384;DHT22;62824;52.994;-3.936;2023-04-15T02:38:46;5.70;99.90
74384;DHT22;62824;52.994;-3.936;2023-04-15T02:41:12;5.60;99.90
74384;DHT22;62824;52.994;-3.936;2023-04-15T02:43:38;5.50;99.90
74384;DHT22;62824;52.994;-3.936;2023-04-15T02:46:04;5.40;99.90
74384;DHT22;62824;52.994;-3.936;2023-04-15T02:48:30;5.30;99.90
74384;DHT22;62824;52.994;-3.936;2023-04-15T02:51:15;5.30;99.90
74384;DHT22;62824;52.994;-3.936;2023-04-15T02:53:41;5.30;99.90
74384;DHT22;62824;52.994;-3.936;2023-04-15T02:56:07;5.30;99.90
74384;DHT22;62824;52.994;-3.936;2023-04-15T02:58:34;5.30;99.90
74384;DHT22;62824;52.994;-3.936;2023-04-15T03:01:01;5.30;99.90
74384;DHT22;62824;52.994;-3.936;2023-04-15T03:03:27;5.40;99.90
74384;DHT22;62824;52.994;-3.936;2023-04-15T03:05:53;5.40;99.90
74384;DHT22;62824;52.994;-3.936;2023-04-15T03:08:19;5.40;99.90
74384;DHT22;62824;52.994;-3.936;2023-04-15T03:10:48;5.40;99.90
74384;DHT22;62824;52.994;-3.936;2023-04-15T03:13:13;5.50;99.90
74384;DHT22;62824;52.994;-3.936;2023-04-15T03:15:39;5.50;99.90
74384;DHT22;62824;52.994;-3.936;2023-04-15T03:18:05;5.50;99.90
74384;DHT22;62824;52.994;-3.936;2023-04-15T03:20:31;5.60;99.90
74384;DHT22;62824;52.994;-3.936;2023-04-15T03:22:56;5.60;99.90
74384;DHT22;62824;52.994;-3.936;2023-04-15T03:25:22;5.70;99.90
74384;DHT22;62824;52.994;-3.936;2023-04-15T03:27:48;5.70;99.90
74384;DHT22;62824;52.994;-3.936;2023-04-15T03:30:14;5.80;99.90
74384;DHT22;62824;52.994;-3.936;2023-04-15T03:32:39;5.90;99.90
74384;DHT22;62824;52.994;-3.936;2023-04-15T03:35:05;5.80;99.90
74384;DHT22;62824;52.994;-3.936;2023-04-15T03:37:31;5.80;99.90
74384;DHT22;62824;52.994;-3.936;2023-04-15T03:39:57;5.70;99.90
74384;DHT22;62824;52.994;-3.936;2023-04-15T03:42:22;5.70;99.90
74384;DHT22;62824;52.994;-3.936;2023-04-15T03:44:48;5.70;99.90
74384;DHT22;62824;52.994;-3.936;2023-04-15T03:47:14;5.70;99.90
74384;DHT22;62824;52.994;-3.936;2023-04-15T03:49:40;5.70;99.90
74384;DHT22;62824;52.994;-3.936;2023-04-15T03:52:05;5.70;99.90
74384;DHT22;62824;52.994;-3.936;2023-04-15T03:54:31;5.70;99.90
74384;DHT22;62824;52.994;-3.936;2023-04-15T03:56:57;5.80;99.90
74384;DHT22;62824;52.994;-3.936;2023-04-15T03:59:23;5.80;99.90
74384;DHT22;62824;52.994;-3.936;2023-04-15T04:01:48;5.80;99.90
74384;DHT22;62824;52.994;-3.936;2023-04-15T04:04:14;5.90;99.90
74384;DHT22;62824;52.994;-3.936;2023-04-15T04:06:40;5.90;99.90
74384;DHT22;62824;52.994;-3.936;2023-04-15T04:09:05;5.90;99.90
74384;DHT22;62824;52.994;-3.936;2023-04-15T04:11:31;5.90;99.90
74384;DHT22;62824;52.994;-3.936;2023-04-15T04:13:57;5.90;99.90
74384;DHT22;62824;52.994;-3.936;2023-04-15T04:16:23;5.90;99.90
74384;DHT22;62824;52.994;-3.936;2023-04-15T04:18:49;6.00;99.90
74384;DHT22;62824;52.994;-3.936;2023-04-15T04:21:15;6.00;99.90
74384;DHT22;62824;52.994;-3.936;2023-04-15T04:23:41;6.00;99.90
74384;DHT22;62824;52.994;-3.936;2023-04-15T04:26:07;5.90;99.90
74384;DHT22;62824;52.994;-3.936;2023-04-15T04:28:33;5.90;99.90
74384;DHT22;62824;52.994;-3.936;2023-04-15T04:30:59;5.80;99.90
74384;DHT22;62824;52.994;-3.936;2023-04-15T04:33:25;5.80;99.90
74384;DHT22;62824;52.994;-3.936;2023-04-15T04:35:51;5.80;99.90
74384;DHT22;62824;52.994;-3.936;2023-04-15T04:38:17;5.70;99.90
74384;DHT22;62824;52.994;-3.936;2023-04-15T04:40:43;5.70;99.90
74384;DHT22;62824;52.994;-3.936;2023-04-15T04:43:09;5.60;99.90
74384;DHT22;62824;52.994;-3.936;2023-04-15T04:45:34;5.60;99.90
74384;DHT22;62824;52.994;-3.936;2023-04-15T04:48:00;5.50;99.90
74384;DHT22;62824;52.994;-3.936;2023-04-15T04:50:26;5.50;99.90
74384;DHT22;62824;52.994;-3.936;2023-04-15T04:52:52;5.40;99.90
74384;DHT22;62824;52.994;-3.936;2023-04-15T04:55:18;5.40;99.90
74384;DHT22;62824;52.994;-3.936;2023-04-15T04:57:44;5.30;99.90
74384;DHT22;62824;52.994;-3.936;2023-04-15T05:00:10;5.30;99.90
74384;DHT22;62824;52.994;-3.936;2023-04-15T05:02:37;5.30;99.90
74384;DHT22;62824;52.994;-3.936;2023-04-15T05:05:03;5.30;99.90
74384;DHT22;62824;52.994;-3.936;2023-04-15T05:07:29;5.20;99.90
74384;DHT22;62824;52.994;-3.936;2023-04-15T05:09:55;5.10;99.90
74384;DHT22;62824;52.994;-3.936;2023-04-15T05:12:21;5.00;99.90
74384;DHT22;62824;52.994;-3.936;2023-04-15T05:14:47;4.90;99.90
74384;DHT22;62824;52.994;-3.936;2023-04-15T05:17:12;4.90;99.90
74384;DHT22;62824;52.994;-3.936;2023-04-15T05:19:38;4.90;99.90
74384;DHT22;62824;52.994;-3.936;2023-04-15T05:22:04;5.00;99.90
74384;DHT22;62824;52.994;-3.936;2023-04-15T05:24:30;5.00;99.90
74384;DHT22;62824;52.994;-3.936;2023-04-15T05:26:56;5.00;99.90
74384;DHT22;62824;52.994;-3.936;2023-04-15T05:29:22;5.00;99.90
74384;DHT22;62824;52.994;-3.936;2023-04-15T05:31:48;5.00;99.90
74384;DHT22;62824;52.994;-3.936;2023-04-15T05:34:14;5.10;99.90
74384;DHT22;62824;52.994;-3.936;2023-04-15T05:36:41;5.10;99.90
74384;DHT22;62824;52.994;-3.936;2023-04-15T05:39:06;5.10;99.90
74384;DHT22;62824;52.994;-3.936;2023-04-15T05:41:32;5.10;99.90
74384;DHT22;62824;52.994;-3.936;2023-04-15T05:43:59;5.00;99.90
74384;DHT22;62824;52.994;-3.936;2023-04-15T05:46:24;4.90;99.90
74384;DHT22;62824;52.994;-3.936;2023-04-15T05:48:50;4.90;99.90
74384;DHT22;62824;52.994;-3.936;2023-04-15T05:51:16;4.90;99.90
74384;DHT22;62824;52.994;-3.936;2023-04-15T05:53:42;4.80;99.90
74384;DHT22;62824;52.994;-3.936;2023-04-15T05:56:08;4.70;99.90
74384;DHT22;62824;52.994;-3.936;2023-04-15T05:58:34;4.70;99.90
74384;DHT22;62824;52.994;-3.936;2023-04-15T06:01:02;4.70;99.90
74384;DHT22;62824;52.994;-3.936;2023-04-15T06:03:28;4.80;99.90
74384;DHT22;62824;52.994;-3.936;2023-04-15T06:05:53;4.80;99.90
74384;DHT22;62824;52.994;-3.936;2023-04-15T06:08:19;4.70;99.90
74384;DHT22;62824;52.994;-3.936;2023-04-15T06:10:46;4.80;99.90
74384;DHT22;62824;52.994;-3.936;2023-04-15T06:13:12;4.70;99.90
74384;DHT22;62824;52.994;-3.936;2023-04-15T06:15:37;4.70;99.90
74384;DHT22;62824;52.994;-3.936;2023-04-15T06:18:03;4.60;99.90
74384;DHT22;62824;52.994;-3.936;2023-04-15T06:20:29;4.60;99.90
74384;DHT22;62824;52.994;-3.936;2023-04-15T06:22:56;4.60;99.90
74384;DHT22;62824;52.994;-3.936;2023-04-15T06:25:22;4.70;99.90
74384;DHT22;62824;52.994;-3.936;2023-04-15T06:27:48;4.70;99.90
74384;DHT22;62824;52.994;-3.936;2023-04-15T06:30:14;4.70;99.90
74384;DHT22;62824;52.994;-3.936;2023-04-15T06:32:39;4.70;99.90
74384;DHT22;62824;52.994;-3.936;2023-04-15T06:35:05;4.70;99.90
74384;DHT22;62824;52.994;-3.936;2023-04-15T06:37:31;4.80;99.90
74384;DHT22;62824;52.994;-3.936;2023-04-15T06:39:57;4.90;99.90
74384;DHT22;62824;52.994;-3.936;2023-04-15T06:42:23;5.00;99.90
74384;DHT22;62824;52.994;-3.936;2023-04-15T06:44:49;4.90;99.90
74384;DHT22;62824;52.994;-3.936;2023-04-15T06:47:14;5.00;99.90
74384;DHT22;62824;52.994;-3.936;2023-04-15T06:49:40;5.10;99.90
74384;DHT22;62824;52.994;-3.936;2023-04-15T06:52:09;5.20;99.90
74384;DHT22;62824;52.994;-3.936;2023-04-15T06:54:35;5.30;99.90
74384;DHT22;62824;52.994;-3.936;2023-04-15T06:57:01;6.10;99.90
74384;DHT22;62824;52.994;-3.936;2023-04-15T06:59:27;6.90;99.90
74384;DHT22;62824;52.994;-3.936;2023-04-15T07:01:53;7.80;99.90
74384;DHT22;62824;52.994;-3.936;2023-04-15T07:04:19;8.50;99.10
74384;DHT22;62824;52.994;-3.936;2023-04-15T07:06:45;9.10;96.60
74384;DHT22;62824;52.994;-3.936;2023-04-15T07:09:11;9.70;93.20
74384;DHT22;62824;52.994;-3.936;2023-04-15T07:11:38;10.10;91.10
74384;DHT22;62824;52.994;-3.936;2023-04-15T07:14:03;10.50;88.20
74384;DHT22;62824;52.994;-3.936;2023-04-15T07:16:29;10.80;85.80
74384;DHT22;62824;52.994;-3.936;2023-04-15T07:18:55;11.20;82.00
74384;DHT22;62824;52.994;-3.936;2023-04-15T07:21:21;11.40;81.20
74384;DHT22;62824;52.994;-3.936;2023-04-15T07:23:48;11.70;78.10
74384;DHT22;62824;52.994;-3.936;2023-04-15T07:26:14;12.20;74.60
74384;DHT22;62824;52.994;-3.936;2023-04-15T07:28:40;12.70;70.20
74384;DHT22;62824;52.994;-3.936;2023-04-15T07:31:06;13.00;67.00
74384;DHT22;62824;52.994;-3.936;2023-04-15T07:33:32;13.10;63.80
74384;DHT22;62824;52.994;-3.936;2023-04-15T07:35:59;13.40;59.90
74384;DHT22;62824;52.994;-3.936;2023-04-15T07:38:25;13.50;56.80
74384;DHT22;62824;52.994;-3.936;2023-04-15T07:40:51;13.80;55.30
74384;DHT22;62824;52.994;-3.936;2023-04-15T07:43:17;14.10;53.70
74384;DHT22;62824;52.994;-3.936;2023-04-15T07:45:45;14.20;52.50
74384;DHT22;62824;52.994;-3.936;2023-04-15T07:48:10;14.40;51.20
74384;DHT22;62824;52.994;-3.936;2023-04-15T07:50:36;14.20;52.30
74384;DHT22;62824;52.994;-3.936;2023-04-15T07:53:02;14.50;52.50
74384;DHT22;62824;52.994;-3.936;2023-04-15T07:55:28;14.80;49.60
74384;DHT22;62824;52.994;-3.936;2023-04-15T07:57:55;14.90;48.30
74384;DHT22;62824;52.994;-3.936;2023-04-15T08:00:21;15.20;47.70
74384;DHT22;62824;52.994;-3.936;2023-04-15T08:02:48;15.60;44.70
74384;DHT22;62824;52.994;-3.936;2023-04-15T08:05:14;15.70;43.80
74384;DHT22;62824;52.994;-3.936;2023-04-15T08:07:40;15.90;44.00
74384;DHT22;62824;52.994;-3.936;2023-04-15T08:10:06;16.30;42.10
74384;DHT22;62824;52.994;-3.936;2023-04-15T08:12:32;16.00;41.50
74384;DHT22;62824;52.994;-3.936;2023-04-15T08:14:58;16.10;41.50
74384;DHT22;62824;52.994;-3.936;2023-04-15T08:17:24;15.70;42.60
74384;DHT22;62824;52.994;-3.936;2023-04-15T08:19:50;15.20;45.00
74384;DHT22;62824;52.994;-3.936;2023-04-15T08:22:16;14.80;46.00
74384;DHT22;62824;52.994;-3.936;2023-04-15T08:24:42;14.20;53.60
74384;DHT22;62824;52.994;-3.936;2023-04-15T08:27:08;13.60;54.20
74384;DHT22;62824;52.994;-3.936;2023-04-15T08:29:34;13.50;59.30
74384;DHT22;62824;52.994;-3.936;2023-04-15T08:32:01;13.50;61.40
74384;DHT22;62824;52.994;-3.936;2023-04-15T08:34:27;13.40;60.80
74384;DHT22;62824;52.994;-3.936;2023-04-15T08:36:54;13.60;61.80
74384;DHT22;62824;52.994;-3.936;2023-04-15T08:39:20;13.80;59.40
74384;DHT22;62824;52.994;-3.936;2023-04-15T08:41:51;13.60;57.20
74384;DHT22;62824;52.994;-3.936;2023-04-15T08:44:23;13.50;62.20
74384;DHT22;62824;52.994;-3.936;2023-04-15T08:46:50;13.70;59.30
74384;DHT22;62824;52.994;-3.936;2023-04-15T08:49:17;13.30;54.30
74384;DHT22;62824;52.994;-3.936;2023-04-15T08:51:44;13.30;55.20
74384;DHT22;62824;52.994;-3.936;2023-04-15T08:54:10;13.50;56.90
74384;DHT22;62824;52.994;-3.936;2023-04-15T08:56:38;13.50;56.30
74384;DHT22;62824;52.994;-3.936;2023-04-15T08:59:04;13.60;56.80
74384;DHT22;62824;52.994;-3.936;2023-04-15T09:01:33;13.50;60.20
74384;DHT22;62824;52.994;-3.936;2023-04-15T09:04:01;14.00;59.80
74384;DHT22;62824;52.994;-3.936;2023-04-15T09:06:27;13.80;58.50
74384;DHT22;62824;52.994;-3.936;2023-04-15T09:08:53;13.70;60.00
74384;DHT22;62824;52.994;-3.936;2023-04-15T09:11:21;13.60;61.30
74384;DHT22;62824;52.994;-3.936;2023-04-15T09:13:47;13.70;58.10
74384;DHT22;62824;52.994;-3.936;2023-04-15T09:16:13;13.40;62.20
74384;DHT22;62824;52.994;-3.936;2023-04-15T09:18:40;13.90;58.00
74384;DHT22;62824;52.994;-3.936;2023-04-15T09:21:10;13.80;54.70
74384;DHT22;62824;52.994;-3.936;2023-04-15T09:23:56;13.70;54.20
74384;DHT22;62824;52.994;-3.936;2023-04-15T09:26:37;13.90;57.90
74384;DHT22;62824;52.994;-3.936;2023-04-15T09:29:09;13.90;51.30
74384;DHT22;62824;52.994;-3.936;2023-04-15T09:31:38;13.80;50.50
74384;DHT22;62824;52.994;-3.936;2023-04-15T09:34:04;13.80;52.10
74384;DHT22;62824;52.994;-3.936;2023-04-15T09:36:54;14.30;51.40
74384;DHT22;62824;52.994;-3.936;2023-04-15T09:39:21;14.50;47.90
74384;DHT22;62824;52.994;-3.936;2023-04-15T09:42:04;14.70;48.10
74384;DHT22;62824;52.994;-3.936;2023-04-15T09:44:31;15.10;45.10
74384;DHT22;62824;52.994;-3.936;2023-04-15T09:46:57;15.10;41.70
74384;DHT22;62824;52.994;-3.936;2023-04-15T09:49:23;14.80;43.00
74384;DHT22;62824;52.994;-3.936;2023-04-15T09:51:50;15.00;44.60
74384;DHT22;62824;52.994;-3.936;2023-04-15T09:54:19;15.20;41.80
74384;DHT22;62824;52.994;-3.936;2023-04-15T09:56:47;15.00;39.90
74384;DHT22;62824;52.994;-3.936;2023-04-15T09:59:13;14.90;40.80
74384;DHT22;62824;52.994;-3.936;2023-04-15T10:01:40;14.40;41.00
74384;DHT22;62824;52.994;-3.936;2023-04-15T10:04:08;13.90;42.80
74384;DHT22;62824;52.994;-3.936;2023-04-15T10:06:35;14.10;43.30
74384;DHT22;62824;52.994;-3.936;2023-04-15T10:09:01;14.00;41.40
74384;DHT22;62824;52.994;-3.936;2023-04-15T10:11:30;14.00;41.10
74384;DHT22;62824;52.994;-3.936;2023-04-15T10:13:57;13.70;40.10
74384;DHT22;62824;52.994;-3.936;2023-04-15T10:16:26;13.70;43.40
74384;DHT22;62824;52.994;-3.936;2023-04-15T10:18:56;13.70;45.20
74384;DHT22;62824;52.994;-3.936;2023-04-15T10:21:23;14.10;42.50
74384;DHT22;62824;52.994;-3.936;2023-04-15T10:23:49;14.50;39.00
74384;DHT22;62824;52.994;-3.936;2023-04-15T10:26:16;15.00;37.20
74384;DHT22;62824;52.994;-3.936;2023-04-15T10:28:43;15.50;34.00
74384;DHT22;62824;52.994;-3.936;2023-04-15T10:31:11;15.70;31.90
74384;DHT22;62824;52.994;-3.936;2023-04-15T10:33:41;15.20;28.00
74384;DHT22;62824;52.994;-3.936;2023-04-15T10:36:08;14.90;28.00
74384;DHT22;62824;52.994;-3.936;2023-04-15T10:38:39;14.80;26.50
74384;DHT22;62824;52.994;-3.936;2023-04-15T10:41:19;14.60;27.50
74384;DHT22;62824;52.994;-3.936;2023-04-15T10:46:33;16.40;30.00
74384;DHT22;62824;52.994;-3.936;2023-04-15T10:49:10;16.80;26.50
74384;DHT22;62824;52.994;-3.936;2023-04-15T10:51:39;17.20;25.40
74384;DHT22;62824;52.994;-3.936;2023-04-15T10:54:12;17.90;24.90
74384;DHT22;62824;52.994;-3.936;2023-04-15T10:56:44;19.00;23.50
74384;DHT22;62824;52.994;-3.936;2023-04-15T10:59:10;20.30;21.60
74384;DHT22;62824;52.994;-3.936;2023-04-15T11:01:59;20.70;20.70
74384;DHT22;62824;52.994;-3.936;2023-04-15T11:04:57;20.60;20.70
74384;DHT22;62824;52.994;-3.936;2023-04-15T11:12:43;17.90;27.10
74384;DHT22;62824;52.994;-3.936;2023-04-15T11:15:32;17.90;28.40
74384;DHT22;62824;52.994;-3.936;2023-04-15T11:18:20;17.60;28.70
74384;DHT22;62824;52.994;-3.936;2023-04-15T11:20:48;17.10;28.50
74384;DHT22;62824;52.994;-3.936;2023-04-15T11:23:26;16.80;29.40
74384;DHT22;62824;52.994;-3.936;2023-04-15T11:25:54;16.70;29.50
74384;DHT22;62824;52.994;-3.936;2023-04-15T11:28:29;16.30;29.20
74384;DHT22;62824;52.994;-3.936;2023-04-15T11:30:56;16.20;30.50
74384;DHT22;62824;52.994;-3.936;2023-04-15T11:33:23;16.30;31.20
74384;DHT22;62824;52.994;-3.936;2023-04-15T11:35:50;16.20;30.10
74384;DHT22;62824;52.994;-3.936;2023-04-15T11:38:18;16.20;32.40
74384;DHT22;62824;52.994;-3.936;2023-04-15T11:40:44;16.20;33.80
74384;DHT22;62824;52.994;-3.936;2023-04-15T11:43:15;16.20;33.10
74384;DHT22;62824;52.994;-3.936;2023-04-15T11:48:21;16.40;31.30
74384;DHT22;62824;52.994;-3.936;2023-04-15T11:50:53;16.60;30.20
74384;DHT22;62824;52.994;-3.936;2023-04-15T11:53:19;17.60;32.40
74384;DHT22;62824;52.994;-3.936;2023-04-15T11:55:52;18.90;29.10
74384;DHT22;62824;52.994;-3.936;2023-04-15T11:58:23;20.10;26.20
74384;DHT22;62824;52.994;-3.936;2023-04-15T12:00:52;20.90;23.30
74384;DHT22;62824;52.994;-3.936;2023-04-15T12:06:07;19.80;25.30
74384;DHT22;62824;52.994;-3.936;2023-04-15T12:11:45;22.00;22.20
74384;DHT22;62824;52.994;-3.936;2023-04-15T12:14:24;21.20;22.70
74384;DHT22;62824;52.994;-3.936;2023-04-15T12:16:59;21.80;22.40
74384;DHT22;62824;52.994;-3.936;2023-04-15T12:22:08;22.90;20.40
74384;DHT22;62824;52.994;-3.936;2023-04-15T12:24:36;22.40;19.90
74384;DHT22;62824;52.994;-3.936;2023-04-15T12:27:07;21.50;20.60
74384;DHT22;62824;52.994;-3.936;2023-04-15T12:29:35;21.20;21.40
74384;DHT22;62824;52.994;-3.936;2023-04-15T12:32:09;20.80;21.60
74384;DHT22;62824;52.994;-3.936;2023-04-15T12:34:49;20.50;22.50
74384;DHT22;62824;52.994;-3.936;2023-04-15T12:37:15;20.60;21.80
74384;DHT22;62824;52.994;-3.936;2023-04-15T12:39:43;21.40;22.30
74384;DHT22;62824;52.994;-3.936;2023-04-15T12:42:10;21.50;21.30
74384;DHT22;62824;52.994;-3.936;2023-04-15T12:44:37;21.10;22.50
74384;DHT22;62824;52.994;-3.936;2023-04-15T12:47:03;20.10;22.50
74384;DHT22;62824;52.994;-3.936;2023-04-15T12:49:30;19.80;24.00
74384;DHT22;62824;52.994;-3.936;2023-04-15T12:51:58;20.80;22.40
74384;DHT22;62824;52.994;-3.936;2023-04-15T12:54:25;21.70;20.50
74384;DHT22;62824;52.994;-3.936;2023-04-15T12:56:52;21.70;21.20
74384;DHT22;62824;52.994;-3.936;2023-04-15T12:59:19;21.00;21.00
74384;DHT22;62824;52.994;-3.936;2023-04-15T13:01:46;21.50;21.10
74384;DHT22;62824;52.994;-3.936;2023-04-15T13:04:12;21.80;20.60
74384;DHT22;62824;52.994;-3.936;2023-04-15T13:06:38;21.40;20.00
74384;DHT22;62824;52.994;-3.936;2023-04-15T13:09:04;21.80;21.60
74384;DHT22;62824;52.994;-3.936;2023-04-15T13:11:30;22.30;20.60
74384;DHT22;62824;52.994;-3.936;2023-04-15T13:14:01;22.70;20.50
74384;DHT22;62824;52.994;-3.936;2023-04-15T13:16:28;22.70;20.40
74384;DHT22;62824;52.994;-3.936;2023-04-15T13:18:54;22.90;19.90
74384;DHT22;62824;52.994;-3.936;2023-04-15T13:21:20;22.80;19.50
74384;DHT22;62824;52.994;-3.936;2023-04-15T13:23:46;22.20;20.60
74384;DHT22;62824;52.994;-3.936;2023-04-15T13:26:12;21.80;20.40
74384;DHT22;62824;52.994;-3.936;2023-04-15T13:28:38;22.00;22.10
74384;DHT22;62824;52.994;-3.936;2023-04-15T13:31:05;22.20;19.70
74384;DHT22;62824;52.994;-3.936;2023-04-15T13:33:31;21.80;22.00
74384;DHT22;62824;52.994;-3.936;2023-04-15T13:35:57;22.20;20.30
74384;DHT22;62824;52.994;-3.936;2023-04-15T13:38:23;22.80;19.50
74384;DHT22;62824;52.994;-3.936;2023-04-15T13:40:50;22.60;20.40
74384;DHT22;62824;52.994;-3.936;2023-04-15T13:43:16;22.50;21.30
74384;DHT22;62824;52.994;-3.936;2023-04-15T13:45:42;22.10;20.20
74384;DHT22;62824;52.994;-3.936;2023-04-15T13:48:08;22.00;21.00
74384;DHT22;62824;52.994;-3.936;2023-04-15T13:50:34;22.20;22.60
74384;DHT22;62824;52.994;-3.936;2023-04-15T13:53:00;22.20;21.90
74384;DHT22;62824;52.994;-3.936;2023-04-15T13:55:26;22.30;21.80
74384;DHT22;62824;52.994;-3.936;2023-04-15T13:57:52;21.80;22.40
74384;DHT22;62824;52.994;-3.936;2023-04-15T14:00:18;22.00;22.30
74384;DHT22;62824;52.994;-3.936;2023-04-15T14:02:44;21.70;22.90
74384;DHT22;62824;52.994;-3.936;2023-04-15T14:05:11;21.30;23.30
74384;DHT22;62824;52.994;-3.936;2023-04-15T14:07:37;21.70;22.50
74384;DHT22;62824;52.994;-3.936;2023-04-15T14:10:03;21.80;23.50
74384;DHT22;62824;52.994;-3.936;2023-04-15T14:12:29;21.80;23.30
74384;DHT22;62824;52.994;-3.936;2023-04-15T14:14:55;21.40;22.90
74384;DHT22;62824;52.994;-3.936;2023-04-15T14:17:21;20.40;24.20
74384;DHT22;62824;52.994;-3.936;2023-04-15T14:19:46;20.30;25.40
74384;DHT22;62824;52.994;-3.936;2023-04-15T14:22:12;20.40;25.70
74384;DHT22;62824;52.994;-3.936;2023-04-15T14:24:38;20.80;24.40
74384;DHT22;62824;52.994;-3.936;2023-04-15T14:27:05;20.30;25.20
74384;DHT22;62824;52.994;-3.936;2023-04-15T14:29:30;20.40;24.60
74384;DHT22;62824;52.994;-3.936;2023-04-15T14:31:56;20.80;25.00
74384;DHT22;62824;52.994;-3.936;2023-04-15T14:34:23;20.40;24.30
74384;DHT22;62824;52.994;-3.936;2023-04-15T14:36:50;20.60;25.40
74384;DHT22;62824;52.994;-3.936;2023-04-15T14:39:18;20.70;24.10
74384;DHT22;62824;52.994;-3.936;2023-04-15T14:41:44;20.60;23.90
74384;DHT22;62824;52.994;-3.936;2023-04-15T14:44:10;19.80;24.60
74384;DHT22;62824;52.994;-3.936;2023-04-15T14:46:37;19.90;26.10
74384;DHT22;62824;52.994;-3.936;2023-04-15T14:49:03;20.30;25.40
74384;DHT22;62824;52.994;-3.936;2023-04-15T14:51:30;20.50;24.50
74384;DHT22;62824;52.994;-3.936;2023-04-15T14:53:56;20.30;23.60
74384;DHT22;62824;52.994;-3.936;2023-04-15T14:56:22;20.00;22.40
74384;DHT22;62824;52.994;-3.936;2023-04-15T14:58:47;19.80;24.00
74384;DHT22;62824;52.994;-3.936;2023-04-15T15:01:14;19.90;24.70
74384;DHT22;62824;52.994;-3.936;2023-04-15T15:03:40;19.90;24.40
74384;DHT22;62824;52.994;-3.936;2023-04-15T15:06:06;19.10;23.20
74384;DHT22;62824;52.994;-3.936;2023-04-15T15:08:32;18.50;25.90
74384;DHT22;62824;52.994;-3.936;2023-04-15T15:10:57;18.50;25.60
74384;DHT22;62824;52.994;-3.936;2023-04-15T15:13:23;18.30;25.80
74384;DHT22;62824;52.994;-3.936;2023-04-15T15:15:50;17.70;27.10
74384;DHT22;62824;52.994;-3.936;2023-04-15T15:18:16;17.90;26.30
74384;DHT22;62824;52.994;-3.936;2023-04-15T15:20:43;18.10;26.50
74384;DHT22;62824;52.994;-3.936;2023-04-15T15:23:09;18.20;25.00
74384;DHT22;62824;52.994;-3.936;2023-04-15T15:25:35;18.50;23.50
74384;DHT22;62824;52.994;-3.936;2023-04-15T15:28:01;18.80;22.90
74384;DHT22;62824;52.994;-3.936;2023-04-15T15:30:26;18.80;20.80
74384;DHT22;62824;52.994;-3.936;2023-04-15T15:32:52;18.80;20.80
74384;DHT22;62824;52.994;-3.936;2023-04-15T15:35:18;18.50;22.10
74384;DHT22;62824;52.994;-3.936;2023-04-15T15:37:45;18.50;22.30
74384;DHT22;62824;52.994;-3.936;2023-04-15T15:40:11;18.50;22.20
74384;DHT22;62824;52.994;-3.936;2023-04-15T15:42:37;18.40;22.70